Time;durP1;ratioP1;P1;durP2;ratioP2;P2;SDS_P1;SDS_P2;PMS_P1;PMS_P2;Temp;Humidity;BMP_temperature;BMP_pressure;BME280_temperature;BME280_humidity;BME280_pressure;Samples;Min_cycle;Max_cycle;Signal;HPM_P1;HPM_P2
2024/01/04 00:00:57;;;;;;;1999.90;999.90;;;9.10;99.90;;;;;;5071005;28;20423;-73
2024/01/04 00:03:25;;;;;;;1999.90;999.90;;;9.30;99.90;;;;;;5071036;28;20411;-73
2024/01/04 00:05:52;;;;;;;1999.90;999.90;;;9.30;99.90;;;;;;5067581;28;20914;-74
2024/01/04 00:08:19;;;;;;;1999.90;999.90;;;9.40;99.90;;;;;;5070073;28;20431;-71
2024/01/04 00:10:46;;;;;;;1999.90;999.90;;;9.40;99.90;;;;;;5071182;28;20403;-71
2024/01/04 00:13:12;;;;;;;1999.90;999.90;;;9.50;99.90;;;;;;5076754;28;20410;-72
2024/01/04 00:15:39;;;;;;;1999.90;999.90;;;9.40;99.90;;;;;;5078608;28;20414;-70
2024/01/04 00:18:07;;;;;;;1999.90;999.90;;;9.40;99.90;;;;;;5072048;28;20870;-70
2024/01/04 00:20:34;;;;;;;1999.90;999.90;;;9.40;99.90;;;;;;5074616;28;20417;-72
2024/01/04 00:23:01;;;;;;;1999.90;999.90;;;9.30;99.90;;;;;;5071091;28;20458;-73
2024/01/04 00:25:27;;;;;;;1999.90;999.90;;;9.20;99.90;;;;;;5074190;28;20828;-73
2024/01/04 00:27:54;;;;;;;1999.90;999.90;;;9.10;99.90;;;;;;5076567;28;20415;-73
2024/01/04 00:30:21;;;;;;;1999.90;999.90;;;9.00;99.90;;;;;;5072365;28;20429;-73
2024/01/04 00:32:47;;;;;;;1999.90;999.90;;;9.00;99.90;;;;;;5071228;28;20898;-69
2024/01/04 00:35:15;;;;;;;1999.90;999.90;;;9.00;99.90;;;;;;5070510;28;20439;-71
2024/01/04 00:37:42;;;;;;;1999.90;999.90;;;8.90;99.90;;;;;;5072497;28;20419;-71
2024/01/04 00:40:09;;;;;;;1999.90;999.90;;;9.00;99.90;;;;;;5069523;28;21042;-72
2024/01/04 00:42:36;;;;;;;1999.90;999.90;;;8.90;99.90;;;;;;5073330;28;20488;-73
2024/01/04 00:45:04;;;;;;;1999.90;999.90;;;8.90;99.90;;;;;;5070364;28;20411;-73
2024/01/04 00:47:31;;;;;;;1999.90;999.90;;;8.90;99.90;;;;;;5070682;28;20407;-74
2024/01/04 00:49:58;;;;;;;1999.90;999.90;;;8.90;99.90;;;;;;5072185;28;20411;-74
2024/01/04 00:52:26;;;;;;;1999.90;999.90;;;8.80;99.90;;;;;;5073904;28;20871;-74
2024/01/04 00:54:53;;;;;;;1999.90;999.90;;;8.80;99.90;;;;;;5072842;28;20423;-72
2024/01/04 00:57:19;;;;;;;1999.90;999.90;;;8.90;99.90;;;;;;5070150;28;20416;-73
2024/01/04 00:59:46;;;;;;;1999.90;999.90;;;8.90;99.90;;;;;;5070266;28;20424;-71
2024/01/04 01:02:13;;;;;;;1999.90;999.90;;;8.90;99.90;;;;;;5070350;28;20410;-71
2024/01/04 01:04:39;;;;;;;1999.90;999.90;;;8.90;99.90;;;;;;5070174;28;20431;-74
2024/01/04 01:07:06;;;;;;;1999.90;999.90;;;9.00;99.90;;;;;;5070203;28;20415;-72
2024/01/04 01:09:34;;;;;;;1999.90;999.90;;;8.90;99.90;;;;;;5069704;28;20533;-72
2024/01/04 01:12:01;;;;;;;1999.90;999.90;;;8.90;99.90;;;;;;5082032;28;20427;-72
2024/01/04 01:14:27;;;;;;;1999.90;999.90;;;8.90;99.90;;;;;;5084464;28;20493;-72
2024/01/04 01:16:54;;;;;;;1999.90;999.90;;;9.00;99.90;;;;;;5068521;28;20439;-71
2024/01/04 01:19:21;;;;;;;1999.90;999.90;;;8.90;99.90;;;;;;5071098;28;20667;-71
2024/01/04 01:21:47;;;;;;;1999.90;999.90;;;9.00;99.90;;;;;;5068889;28;20423;-74
2024/01/04 01:24:14;;;;;;;1999.90;999.90;;;8.90;99.90;;;;;;5084695;28;20410;-74
2024/01/04 01:26:42;;;;;;;1999.90;999.90;;;8.80;99.90;;;;;;5072026;28;20435;-71
2024/01/04 01:29:09;;;;;;;1999.90;999.90;;;8.80;99.90;;;;;;5069546;28;20558;-74
2024/01/04 01:31:41;;;;;;;1999.90;999.90;;;8.80;99.90;;;;;;5069757;28;20415;-74
2024/01/04 01:34:08;;;;;;;1999.90;999.90;;;8.80;99.90;;;;;;5073719;28;20515;-73
2024/01/04 01:36:34;;;;;;;1999.90;999.90;;;8.70;99.90;;;;;;5073403;28;20893;-74
2024/01/04 01:39:02;;;;;;;1999.90;999.90;;;8.60;99.90;;;;;;5069025;28;20439;-74
2024/01/04 01:41:28;;;;;;;1999.90;999.90;;;8.70;99.90;;;;;;5064006;28;20416;-74
2024/01/04 01:43:56;;;;;;;1999.90;999.90;;;8.70;99.90;;;;;;5073731;28;20415;-73
2024/01/04 01:46:23;;;;;;;1999.90;999.90;;;8.60;99.90;;;;;;5078775;28;20413;-73
2024/01/04 01:48:49;;;;;;;1999.90;999.90;;;8.60;99.90;;;;;;5067823;28;20405;-73
2024/01/04 01:51:16;;;;;;;1999.90;999.90;;;8.60;99.90;;;;;;5078299;28;20895;-73
2024/01/04 01:53:43;;;;;;;1999.90;999.90;;;8.60;99.90;;;;;;5080639;28;20432;-73
2024/01/04 01:56:10;;;;;;;1999.90;999.90;;;8.60;99.90;;;;;;5069913;28;20812;-73
2024/01/04 01:58:38;;;;;;;1999.90;999.90;;;8.70;99.90;;;;;;5069626;28;20424;-73
2024/01/04 02:01:06;;;;;;;1999.90;999.90;;;8.60;99.90;;;;;;5069526;28;20491;-73
2024/01/04 02:03:33;;;;;;;1999.90;999.90;;;8.60;99.90;;;;;;5067960;28;20485;-71
2024/01/04 02:05:59;;;;;;;1999.90;999.90;;;8.50;99.90;;;;;;5076410;28;20461;-73
2024/01/04 02:08:26;;;;;;;1999.90;999.90;;;8.50;99.90;;;;;;5070975;28;20415;-73
2024/01/04 02:10:53;;;;;;;1999.90;999.90;;;8.50;99.90;;;;;;5073917;28;20408;-72
2024/01/04 02:13:19;;;;;;;1999.90;999.90;;;8.50;99.90;;;;;;5080534;28;20410;-72
2024/01/04 02:15:47;;;;;;;1999.90;999.90;;;8.50;99.90;;;;;;5076974;28;20435;-70
2024/01/04 02:18:15;;;;;;;1999.90;999.90;;;8.50;99.90;;;;;;5076703;28;20956;-70
2024/01/04 02:20:42;;;;;;;1999.90;999.90;;;8.50;99.90;;;;;;5070514;28;20815;-70
2024/01/04 02:23:16;;;;;;;1999.90;999.90;;;8.40;99.90;;;;;;5075206;28;20415;-71
2024/01/04 02:25:43;;;;;;;1999.90;999.90;;;8.40;99.90;;;;;;5067259;28;20455;-71
2024/01/04 02:28:10;;;;;;;1999.90;999.90;;;8.40;99.90;;;;;;5071665;28;20984;-70
2024/01/04 02:30:36;;;;;;;1999.90;999.90;;;8.40;99.90;;;;;;5072464;28;20431;-71
2024/01/04 02:33:03;;;;;;;1999.90;999.90;;;8.40;99.90;;;;;;5078216;28;20490;-71
2024/01/04 02:35:30;;;;;;;1999.90;999.90;;;8.40;99.90;;;;;;5075496;28;20431;-71
2024/01/04 02:37:57;;;;;;;1999.90;999.90;;;8.40;99.90;;;;;;5075815;28;20529;-70
2024/01/04 02:40:25;;;;;;;1999.90;999.90;;;8.40;99.90;;;;;;5071958;28;20814;-70
2024/01/04 02:42:51;;;;;;;1999.90;999.90;;;8.40;99.90;;;;;;5071634;28;20455;-73
2024/01/04 02:45:18;;;;;;;1999.90;999.90;;;8.50;99.90;;;;;;5066040;28;20456;-70
2024/01/04 02:47:45;;;;;;;1999.90;999.90;;;8.50;99.90;;;;;;5072740;28;20445;-72
2024/01/04 02:50:13;;;;;;;1999.90;999.90;;;8.50;99.90;;;;;;5072631;28;20422;-72
2024/01/04 02:52:39;;;;;;;1999.90;999.90;;;8.50;99.90;;;;;;5071279;28;20427;-73
2024/01/04 02:55:06;;;;;;;1999.90;999.90;;;8.60;99.90;;;;;;5072286;28;20798;-73
2024/01/04 02:57:34;;;;;;;1999.90;999.90;;;8.70;99.90;;;;;;5072587;28;20408;-72
2024/01/04 03:00:01;;;;;;;1999.90;999.90;;;8.60;99.90;;;;;;5073401;28;20411;-73
2024/01/04 03:02:28;;;;;;;1999.90;999.90;;;8.50;99.90;;;;;;5069536;28;20410;-72
2024/01/04 03:04:54;;;;;;;1999.90;999.90;;;8.50;99.90;;;;;;5074766;28;20431;-72
2024/01/04 03:07:21;;;;;;;1999.90;999.90;;;8.50;99.90;;;;;;5072379;28;20415;-73
2024/01/04 03:09:48;;;;;;;1999.90;999.90;;;8.60;99.90;;;;;;5078830;28;20503;-72
2024/01/04 03:12:15;;;;;;;1999.90;999.90;;;8.50;99.90;;;;;;5079920;28;20423;-74
2024/01/04 03:14:43;;;;;;;1999.90;999.90;;;8.50;99.90;;;;;;5074685;28;20446;-74
2024/01/04 03:17:09;;;;;;;1999.90;999.90;;;8.50;99.90;;;;;;5071372;28;20434;-73
2024/01/04 03:19:36;;;;;;;1999.90;999.90;;;8.60;99.90;;;;;;5071906;28;20412;-72
2024/01/04 03:22:03;;;;;;;1999.90;999.90;;;8.50;99.90;;;;;;5072279;28;20427;-70
2024/01/04 03:24:31;;;;;;;1999.90;999.90;;;8.50;99.90;;;;;;5073006;28;20933;-72
2024/01/04 03:26:58;;;;;;;1999.90;999.90;;;8.50;99.90;;;;;;5073724;28;20837;-71
2024/01/04 03:29:24;;;;;;;1999.90;999.90;;;8.40;99.90;;;;;;5072036;28;20415;-70
2024/01/04 03:31:52;;;;;;;1999.90;999.90;;;8.30;99.90;;;;;;5072517;28;20415;-70
2024/01/04 03:34:19;;;;;;;1999.90;999.90;;;8.40;99.90;;;;;;5067775;28;20403;-68
2024/01/04 03:36:46;;;;;;;1999.90;999.90;;;8.40;99.90;;;;;;5072054;28;20442;-70
2024/01/04 03:39:12;;;;;;;1999.90;999.90;;;8.40;99.90;;;;;;5071455;28;21016;-71
2024/01/04 03:41:39;;;;;;;1999.90;999.90;;;8.40;99.90;;;;;;5070632;28;20417;-72
2024/01/04 03:44:06;;;;;;;1999.90;999.90;;;8.40;99.90;;;;;;5071344;28;20419;-74
2024/01/04 03:46:32;;;;;;;1999.90;999.90;;;8.30;99.90;;;;;;5071396;28;20414;-71
2024/01/04 03:49:00;;;;;;;1999.90;999.90;;;8.40;99.90;;;;;;5071072;28;20503;-75
2024/01/04 03:51:27;;;;;;;1999.90;999.90;;;8.40;99.90;;;;;;5070443;28;20436;-72
2024/01/04 03:53:54;;;;;;;1999.90;999.90;;;8.30;99.90;;;;;;5071375;28;20411;-72
2024/01/04 03:56:20;;;;;;;1999.90;999.90;;;8.30;99.90;;;;;;5071039;28;20424;-72
2024/01/04 03:58:47;;;;;;;1999.90;999.90;;;8.30;99.90;;;;;;5076755;28;20413;-72
2024/01/04 04:01:14;;;;;;;1999.90;999.90;;;8.40;99.90;;;;;;5086602;28;20410;-72
2024/01/04 04:03:41;;;;;;;1999.90;999.90;;;8.40;99.90;;;;;;5073762;28;20912;-72
2024/01/04 04:06:09;;;;;;;1999.90;999.90;;;8.40;99.90;;;;;;5068691;28;20423;-71
2024/01/04 04:08:36;;;;;;;1999.90;999.90;;;8.40;99.90;;;;;;5071204;28;20411;-70
2024/01/04 04:11:02;;;;;;;1999.90;999.90;;;8.40;99.90;;;;;;5071136;28;20411;-71
2024/01/04 04:13:32;;;;;;;1999.90;999.90;;;8.40;99.90;;;;;;5071817;28;20419;-71
2024/01/04 04:15:58;;;;;;;1999.90;999.90;;;8.40;99.90;;;;;;5070441;28;20438;-72
2024/01/04 04:18:25;;;;;;;1999.90;999.90;;;8.40;99.90;;;;;;5070965;28;20425;-71
2024/01/04 04:20:52;;;;;;;1999.90;999.90;;;8.40;99.90;;;;;;5071795;28;20913;-71
2024/01/04 04:23:20;;;;;;;1999.90;999.90;;;8.40;99.90;;;;;;5067834;28;20414;-69
2024/01/04 04:25:46;;;;;;;1999.90;999.90;;;8.40;99.90;;;;;;5071130;28;20901;-70
2024/01/04 04:28:15;;;;;;;1999.90;999.90;;;8.40;99.90;;;;;;5065348;28;20826;-69
2024/01/04 04:30:41;;;;;;;1999.90;999.90;;;8.40;99.90;;;;;;5071517;28;20489;-70
2024/01/04 04:33:08;;;;;;;1999.90;999.90;;;8.40;99.90;;;;;;5071098;28;20419;-71
2024/01/04 04:35:35;;;;;;;1999.90;999.90;;;8.30;99.90;;;;;;5070988;28;20430;-70
2024/01/04 04:38:01;;;;;;;1999.90;999.90;;;8.30;99.90;;;;;;5069399;28;20412;-70
2024/01/04 04:40:29;;;;;;;1999.90;999.90;;;8.40;99.90;;;;;;5070301;28;20404;-71
2024/01/04 04:42:56;;;;;;;1999.90;999.90;;;8.40;99.90;;;;;;5070566;28;20427;-72
2024/01/04 04:45:23;;;;;;;1999.90;999.90;;;8.40;99.90;;;;;;5070613;28;20817;-69
2024/01/04 04:47:49;;;;;;;1999.90;999.90;;;8.40;99.90;;;;;;5070338;28;20422;-69
2024/01/04 04:50:16;;;;;;;1999.90;999.90;;;8.30;99.90;;;;;;5079083;28;20437;-71
2024/01/04 04:52:43;;;;;;;1999.90;999.90;;;8.30;99.90;;;;;;5070494;28;21000;-72
2024/01/04 04:55:09;;;;;;;1999.90;999.90;;;8.30;99.90;;;;;;5070584;28;20917;-71
2024/01/04 04:57:38;;;;;;;1999.90;999.90;;;8.30;99.90;;;;;;5074796;28;20410;-70
2024/01/04 05:00:07;;;;;;;1999.90;999.90;;;8.20;99.90;;;;;;5069641;28;20423;-73
2024/01/04 05:02:33;;;;;;;1999.90;999.90;;;8.20;99.90;;;;;;5064831;28;20796;-76
2024/01/04 05:05:00;;;;;;;1999.90;999.90;;;8.20;99.90;;;;;;5070496;28;20434;-74
2024/01/04 05:07:27;;;;;;;1999.90;999.90;;;8.20;99.90;;;;;;5070699;28;20404;-73
2024/01/04 05:09:53;;;;;;;1999.90;999.90;;;8.20;99.90;;;;;;5069954;28;20411;-70
2024/01/04 05:12:20;;;;;;;1999.90;999.90;;;8.20;99.90;;;;;;5070264;28;20455;-72
2024/01/04 05:14:48;;;;;;;1999.90;999.90;;;8.20;99.90;;;;;;5072034;28;20427;-69
2024/01/04 05:17:15;;;;;;;1999.90;999.90;;;8.10;99.90;;;;;;5072241;28;20530;-71
2024/01/04 05:19:44;;;;;;;1999.90;999.90;;;7.90;99.90;;;;;;5069822;28;20450;-71
2024/01/04 05:22:11;;;;;;;1999.90;999.90;;;7.90;99.90;;;;;;5079354;28;20421;-73
2024/01/04 05:24:38;;;;;;;1999.90;999.90;;;7.80;99.90;;;;;;5072076;28;20411;-71
2024/01/04 05:27:05;;;;;;;1999.90;999.90;;;7.80;99.90;;;;;;5073426;28;20892;-75
2024/01/04 05:29:31;;;;;;;1999.90;999.90;;;7.90;99.90;;;;;;5071303;28;20420;-71
2024/01/04 05:31:59;;;;;;;1999.90;999.90;;;7.90;99.90;;;;;;5076268;28;20412;-71
2024/01/04 05:34:29;;;;;;;1999.90;999.90;;;7.90;99.90;;;;;;5071037;28;20411;-71
2024/01/04 05:36:55;;;;;;;1999.90;999.90;;;7.90;99.90;;;;;;5072289;28;20441;-72
2024/01/04 05:39:22;;;;;;;1999.90;999.90;;;7.90;99.90;;;;;;5071611;28;20461;-71
2024/01/04 05:41:49;;;;;;;1999.90;999.90;;;8.00;99.90;;;;;;5069492;28;20494;-74
2024/01/04 05:44:16;;;;;;;1999.90;999.90;;;8.00;99.90;;;;;;5069713;28;20422;-71
2024/01/04 05:46:42;;;;;;;1999.90;999.90;;;8.00;99.90;;;;;;5071409;28;20408;-72
2024/01/04 05:49:11;;;;;;;1999.90;999.90;;;8.00;99.90;;;;;;5073176;28;20442;-72
2024/01/04 05:51:38;;;;;;;1999.90;999.90;;;8.00;99.90;;;;;;5069399;28;20412;-71
2024/01/04 05:54:04;;;;;;;1999.90;999.90;;;8.00;99.90;;;;;;5069894;28;20477;-72
2024/01/04 05:56:31;;;;;;;1999.90;999.90;;;8.10;99.90;;;;;;5070173;28;20515;-72
2024/01/04 05:58:58;;;;;;;1999.90;999.90;;;8.10;99.90;;;;;;5070684;28;20431;-72
2024/01/04 06:01:24;;;;;;;1999.90;999.90;;;8.10;99.90;;;;;;5072006;28;20485;-74
2024/01/04 06:03:51;;;;;;;1999.90;999.90;;;8.10;99.90;;;;;;5069165;28;20412;-71
2024/01/04 06:06:20;;;;;;;1999.90;999.90;;;8.10;99.90;;;;;;5062962;28;20399;-70
2024/01/04 06:08:46;;;;;;;1999.90;999.90;;;8.00;99.90;;;;;;5072262;28;20497;-71
2024/01/04 06:11:13;;;;;;;1999.90;999.90;;;7.90;99.90;;;;;;5074910;28;20427;-70
2024/01/04 06:13:40;;;;;;;1999.90;999.90;;;7.90;99.90;;;;;;5073493;28;21035;-72
2024/01/04 06:16:07;;;;;;;1999.90;999.90;;;7.90;99.90;;;;;;5073424;28;20428;-73
2024/01/04 06:18:34;;;;;;;1999.90;999.90;;;7.90;99.90;;;;;;5073604;28;20411;-74
2024/01/04 06:21:00;;;;;;;1999.90;999.90;;;8.00;99.90;;;;;;5076093;28;20824;-72
2024/01/04 06:23:29;;;;;;;1999.90;999.90;;;8.00;99.90;;;;;;5076730;28;20920;-73
2024/01/04 06:25:56;;;;;;;1999.90;999.90;;;8.00;99.90;;;;;;5073014;28;20415;-72
2024/01/04 06:28:23;;;;;;;1999.90;999.90;;;7.90;99.90;;;;;;5073379;28;20419;-73
2024/01/04 06:30:50;;;;;;;1999.90;999.90;;;8.00;99.90;;;;;;5068312;28;20437;-72
2024/01/04 06:33:17;;;;;;;1999.90;999.90;;;8.00;99.90;;;;;;5074294;28;20414;-73
2024/01/04 06:35:44;;;;;;;1999.90;999.90;;;8.00;99.90;;;;;;5072708;28;20423;-72
2024/01/04 06:38:11;;;;;;;1999.90;999.90;;;8.00;99.90;;;;;;5088071;28;20412;-74
2024/01/04 06:40:40;;;;;;;1999.90;999.90;;;8.00;99.90;;;;;;5077640;28;20438;-72
2024/01/04 06:43:08;;;;;;;1999.90;999.90;;;7.80;99.90;;;;;;5071206;28;20960;-75
2024/01/04 06:45:36;;;;;;;1999.90;999.90;;;7.70;99.90;;;;;;5080633;28;20433;-73
2024/01/04 06:48:03;;;;;;;1999.90;999.90;;;7.70;99.90;;;;;;5085101;28;20439;-70
2024/01/04 06:50:30;;;;;;;1999.90;999.90;;;7.70;99.90;;;;;;5088578;28;20406;-73
2024/01/04 06:52:57;;;;;;;1999.90;999.90;;;7.70;99.90;;;;;;5067288;28;20421;-72
2024/01/04 06:55:23;;;;;;;1999.90;999.90;;;7.70;99.90;;;;;;5073473;28;20407;-75
2024/01/04 06:57:51;;;;;;;1999.90;999.90;;;7.70;99.90;;;;;;5072625;28;20420;-73
2024/01/04 07:00:19;;;;;;;1999.90;999.90;;;7.70;99.90;;;;;;5082447;28;20406;-73
2024/01/04 07:02:46;;;;;;;1999.90;999.90;;;7.70;99.90;;;;;;5083105;28;20438;-73
2024/01/04 07:05:13;;;;;;;1999.90;999.90;;;7.60;99.90;;;;;;5070310;28;20409;-72
2024/01/04 07:07:39;;;;;;;1999.90;999.90;;;7.60;99.90;;;;;;5072220;28;20407;-72
2024/01/04 07:10:07;;;;;;;1999.90;999.90;;;7.50;99.90;;;;;;5072242;28;20418;-72
2024/01/04 07:12:34;;;;;;;1999.90;999.90;;;7.50;99.90;;;;;;5072230;28;20461;-71
2024/01/04 07:15:02;;;;;;;1999.90;999.90;;;7.40;99.90;;;;;;5073334;28;20428;-71
2024/01/04 07:17:28;;;;;;;1999.90;999.90;;;7.30;99.90;;;;;;5070681;28;20437;-72
2024/01/04 07:19:55;;;;;;;1999.90;999.90;;;7.20;99.90;;;;;;5077167;28;20420;-74
2024/01/04 07:22:22;;;;;;;1999.90;999.90;;;7.10;99.90;;;;;;5080188;28;20414;-71
2024/01/04 07:24:48;;;;;;;1999.90;999.90;;;7.10;99.90;;;;;;5065089;28;20443;-72
2024/01/04 07:27:15;;;;;;;1999.90;999.90;;;7.10;99.90;;;;;;5068660;28;20426;-73
2024/01/04 07:29:42;;;;;;;1999.90;999.90;;;7.10;99.90;;;;;;5071759;28;20457;-72
2024/01/04 07:32:11;;;;;;;1999.90;999.90;;;7.20;99.90;;;;;;5073719;28;20897;-69
2024/01/04 07:34:39;;;;;;;1999.90;999.90;;;7.10;99.90;;;;;;5075853;28;20557;-73
2024/01/04 07:37:07;;;;;;;1999.90;999.90;;;7.20;99.90;;;;;;5071780;28;20473;-72
2024/01/04 07:39:33;;;;;;;1999.90;999.90;;;7.30;99.90;;;;;;5066885;28;20419;-71
2024/01/04 07:42:00;;;;;;;1999.90;999.90;;;7.20;99.90;;;;;;5071697;28;20420;-72
2024/01/04 07:44:27;;;;;;;1999.90;999.90;;;7.20;99.90;;;;;;5071643;28;20420;-72
2024/01/04 07:46:53;;;;;;;1999.90;999.90;;;7.30;99.90;;;;;;5074025;28;20423;-71
2024/01/04 07:49:21;;;;;;;1999.90;999.90;;;7.30;99.90;;;;;;5067665;28;20411;-69
2024/01/04 07:51:48;;;;;;;1999.90;999.90;;;7.10;99.90;;;;;;5071665;28;20469;-69
2024/01/04 07:54:15;;;;;;;1999.90;999.90;;;6.80;99.90;;;;;;5071629;28;20407;-71
2024/01/04 07:56:42;;;;;;;1999.90;999.90;;;6.60;99.90;;;;;;5071725;28;20428;-70
2024/01/04 07:59:09;;;;;;;1999.90;999.90;;;6.50;99.90;;;;;;5066420;28;20987;-71
2024/01/04 08:01:35;;;;;;;1999.90;999.90;;;6.40;99.90;;;;;;5069087;28;20782;-70
2024/01/04 08:04:03;;;;;;;1999.90;999.90;;;6.30;99.90;;;;;;5080283;28;20412;-70
2024/01/04 08:06:32;;;;;;;1999.90;999.90;;;6.20;99.90;;;;;;5080478;28;20584;-70
2024/01/04 08:08:58;;;;;;;1999.90;999.90;;;6.30;99.90;;;;;;5070069;28;20419;-70
2024/01/04 08:11:25;;;;;;;1999.90;999.90;;;6.20;99.90;;;;;;5067146;28;20704;-66
2024/01/04 08:13:52;;;;;;;1999.90;999.90;;;6.20;99.90;;;;;;5071368;28;20441;-69
2024/01/04 08:16:19;;;;;;;1999.90;999.90;;;6.20;99.90;;;;;;5067976;28;20967;-69
2024/01/04 08:18:46;;;;;;;1999.90;999.90;;;6.20;99.90;;;;;;5070887;28;20435;-69
2024/01/04 08:21:12;;;;;;;1999.90;999.90;;;6.20;99.90;;;;;;5091415;28;20403;-74
2024/01/04 08:23:41;;;;;;;1999.90;999.90;;;6.30;99.90;;;;;;5080945;28;20941;-69
2024/01/04 08:26:08;;;;;;;1999.90;999.90;;;6.30;99.90;;;;;;5071365;28;20434;-70
2024/01/04 08:28:36;;;;;;;1999.90;999.90;;;6.30;99.90;;;;;;5078579;28;20439;-69
2024/01/04 08:31:03;;;;;;;1999.90;999.90;;;6.30;99.90;;;;;;5070556;28;20503;-69
2024/01/04 08:33:30;;;;;;;1999.90;999.90;;;6.30;99.90;;;;;;5084833;28;20437;-70
2024/01/04 08:35:56;;;;;;;1999.90;999.90;;;6.30;99.90;;;;;;5091689;28;20414;-69
2024/01/04 08:38:23;;;;;;;1999.90;999.90;;;6.20;99.90;;;;;;5091339;28;20455;-71
2024/01/04 08:40:51;;;;;;;1999.90;999.90;;;6.20;99.90;;;;;;5085555;28;20461;-69
2024/01/04 08:43:18;;;;;;;1999.90;999.90;;;6.00;99.90;;;;;;5074780;28;20412;-69
2024/01/04 08:45:44;;;;;;;1999.90;999.90;;;6.00;99.90;;;;;;5078233;28;20421;-70
2024/01/04 08:48:11;;;;;;;1999.90;999.90;;;5.90;99.90;;;;;;5091089;28;20413;-70
2024/01/04 08:50:38;;;;;;;1999.90;999.90;;;5.80;99.90;;;;;;5091297;28;20423;-71
2024/01/04 08:53:05;;;;;;;1999.90;999.90;;;5.80;99.90;;;;;;5082211;28;20431;-71
2024/01/04 08:55:32;;;;;;;1999.90;999.90;;;5.80;99.90;;;;;;5068491;28;20435;-70
2024/01/04 08:58:00;;;;;;;1999.90;999.90;;;5.80;99.90;;;;;;5074357;28;20871;-70
2024/01/04 09:00:26;;;;;;;1999.90;999.90;;;5.70;99.90;;;;;;5075050;28;20411;-71
2024/01/04 09:02:53;;;;;;;1999.90;999.90;;;5.70;99.90;;;;;;5067541;28;20438;-69
2024/01/04 09:05:20;;;;;;;1999.90;999.90;;;5.70;99.90;;;;;;5066426;28;20407;-69
2024/01/04 09:07:46;;;;;;;1999.90;999.90;;;5.70;99.90;;;;;;5086464;28;20418;-70
2024/01/04 09:10:13;;;;;;;1999.90;999.90;;;5.70;99.90;;;;;;5090579;28;20406;-70
2024/01/04 09:12:40;;;;;;;1999.90;999.90;;;5.80;99.90;;;;;;5083788;28;20440;-70
2024/01/04 09:15:09;;;;;;;1999.90;999.90;;;5.90;99.90;;;;;;5070211;28;20916;-72
2024/01/04 09:17:36;;;;;;;1999.90;999.90;;;5.90;99.90;;;;;;5075945;28;20433;-70
2024/01/04 09:20:03;;;;;;;1999.90;999.90;;;5.90;99.90;;;;;;5076405;28;20416;-70
2024/01/04 09:22:30;;;;;;;1999.90;999.90;;;6.00;99.90;;;;;;5078500;28;20465;-70
2024/01/04 09:24:56;;;;;;;1999.90;999.90;;;6.00;99.90;;;;;;5090414;28;20475;-71
2024/01/04 09:27:23;;;;;;;1999.90;999.90;;;6.00;99.90;;;;;;5085397;28;20431;-69
2024/01/04 09:29:50;;;;;;;1999.90;999.90;;;6.00;99.90;;;;;;5070157;28;20422;-70
2024/01/04 09:32:19;;;;;;;1999.90;999.90;;;6.00;99.90;;;;;;5081767;28;20410;-69
2024/01/04 09:34:45;;;;;;;1999.90;999.90;;;6.10;99.90;;;;;;5090558;28;20425;-70
2024/01/04 09:37:12;;;;;;;1999.90;999.90;;;6.10;99.90;;;;;;5090201;28;20912;-71
2024/01/04 09:39:40;;;;;;;1999.90;999.90;;;6.20;99.90;;;;;;5082992;28;20430;-69
2024/01/04 09:42:09;;;;;;;1999.90;999.90;;;6.30;99.90;;;;;;5069585;28;20446;-70
2024/01/04 09:44:36;;;;;;;1999.90;999.90;;;6.30;99.90;;;;;;5084395;28;20414;-69
2024/01/04 09:47:08;;;;;;;1999.90;999.90;;;6.20;99.90;;;;;;5090317;28;20432;-70
2024/01/04 09:49:37;;;;;;;1999.90;999.90;;;6.20;99.90;;;;;;5090320;28;20459;-72
2024/01/04 09:52:05;;;;;;;1999.90;999.90;;;6.10;99.90;;;;;;5079289;28;20921;-70
2024/01/04 09:54:32;;;;;;;1999.90;999.90;;;6.10;99.90;;;;;;5069781;28;20489;-69
2024/01/04 09:57:00;;;;;;;1999.90;999.90;;;6.10;99.90;;;;;;5078829;28;20439;-72
2024/01/04 09:59:29;;;;;;;1999.90;999.90;;;6.10;99.90;;;;;;5074498;28;20493;-70
2024/01/04 10:02:00;;;;;;;1999.90;999.90;;;6.00;99.90;;;;;;5069001;28;20933;-69
2024/01/04 10:04:28;;;;;;;1999.90;999.90;;;6.00;99.90;;;;;;5075095;28;20519;-70
2024/01/04 10:06:59;;;;;;;1999.90;999.90;;;6.00;99.90;;;;;;5067056;28;20529;-72
2024/01/04 10:09:28;;;;;;;1999.90;999.90;;;6.00;99.90;;;;;;5064697;28;20443;-70
2024/01/04 10:12:03;;;;;;;1999.90;999.90;;;6.10;99.90;;;;;;5074057;28;20488;-70
2024/01/04 10:14:31;;;;;;;1999.90;999.90;;;6.10;99.90;;;;;;5073859;28;20430;-67
2024/01/04 10:16:58;;;;;;;1999.90;999.90;;;6.00;99.90;;;;;;5069556;28;20840;-70
2024/01/04 10:19:26;;;;;;;1999.90;999.90;;;6.00;99.90;;;;;;5082641;28;20504;-70
2024/01/04 10:21:53;;;;;;;1999.90;999.90;;;6.00;99.90;;;;;;5082275;28;20508;-70
2024/01/04 10:24:26;;;;;;;1999.90;999.90;;;5.90;99.90;;;;;;5064706;28;20411;-68
2024/01/04 10:26:57;;;;;;;1999.90;999.90;;;5.90;99.90;;;;;;5086497;28;20451;-70
2024/01/04 10:29:25;;;;;;;1999.90;999.90;;;5.90;99.90;;;;;;5091864;28;20414;-72
2024/01/04 10:32:02;;;;;;;1999.90;999.90;;;6.00;99.90;;;;;;5110482;28;20437;-74
2024/01/04 10:34:30;;;;;;;1999.90;999.90;;;5.90;99.90;;;;;;5087871;28;20446;-71
2024/01/04 10:37:09;;;;;;;1999.90;999.90;;;5.90;99.90;;;;;;5087368;28;20697;-69
2024/01/04 10:39:37;;;;;;;1999.90;999.90;;;5.90;99.90;;;;;;5075071;28;20469;-68
2024/01/04 10:42:05;;;;;;;1999.90;999.90;;;5.90;99.90;;;;;;5068929;28;20502;-70
2024/01/04 10:44:33;;;;;;;1999.90;999.90;;;6.00;99.90;;;;;;5068472;28;20438;-72
2024/01/04 10:47:01;;;;;;;1999.90;999.90;;;6.10;99.90;;;;;;5068373;28;20459;-71
2024/01/04 10:49:28;;;;;;;1999.90;999.90;;;6.10;99.90;;;;;;5064197;28;20466;-72
2024/01/04 10:51:57;;;;;;;1999.90;999.90;;;6.10;99.90;;;;;;5068760;28;20828;-69
2024/01/04 10:54:30;;;;;;;1999.90;999.90;;;6.10;99.90;;;;;;5073634;28;20412;-70
2024/01/04 10:56:59;;;;;;;1999.90;999.90;;;6.10;99.90;;;;;;5070945;28;20427;-71
2024/01/04 10:59:27;;;;;;;1999.90;999.90;;;6.10;99.90;;;;;;5075764;28;20447;-70
2024/01/04 11:01:55;;;;;;;1999.90;999.90;;;6.20;99.90;;;;;;5066720;28;20438;-70
2024/01/04 11:04:22;;;;;;;1999.90;999.90;;;6.20;99.90;;;;;;5069293;28;21019;-70
2024/01/04 11:06:50;;;;;;;1999.90;999.90;;;6.20;99.90;;;;;;5072758;28;20416;-70
2024/01/04 11:09:18;;;;;;;1999.90;999.90;;;6.20;99.90;;;;;;5071855;28;20889;-69
2024/01/04 11:11:46;;;;;;;1999.90;999.90;;;6.20;99.90;;;;;;5070656;28;20446;-70
2024/01/04 11:14:14;;;;;;;1999.90;999.90;;;6.20;99.90;;;;;;5077754;28;20418;-70
2024/01/04 11:17:09;;;;;;;1999.90;999.90;;;6.30;99.90;;;;;;5077307;28;20480;-70
2024/01/04 11:19:52;;;;;;;1999.90;999.90;;;6.30;99.90;;;;;;5074839;28;20423;-71
2024/01/04 11:22:38;;;;;;;1999.90;999.90;;;6.30;99.90;;;;;;5081888;28;20412;-70
2024/01/04 11:25:12;;;;;;;1999.90;999.90;;;6.30;99.90;;;;;;5092903;28;20406;-70
2024/01/04 11:27:40;;;;;;;1999.90;999.90;;;6.30;99.90;;;;;;5091312;28;20409;-70
2024/01/04 11:30:09;;;;;;;1999.90;999.90;;;6.30;99.90;;;;;;5076991;28;20418;-70
2024/01/04 11:32:36;;;;;;;1999.90;999.90;;;6.30;99.90;;;;;;5072175;28;21075;-68
2024/01/04 11:35:03;;;;;;;1999.90;999.90;;;6.40;99.90;;;;;;5090645;28;20410;-70
2024/01/04 11:37:33;;;;;;;1999.90;999.90;;;6.40;99.90;;;;;;5092826;28;20511;-70
2024/01/04 11:40:03;;;;;;;1999.90;999.90;;;6.50;99.90;;;;;;5069678;28;20436;-70
2024/01/04 11:42:38;;;;;;;1999.90;999.90;;;6.60;99.90;;;;;;5073047;28;20441;-71
2024/01/04 11:45:06;;;;;;;1999.90;999.90;;;6.60;99.90;;;;;;5072519;28;20415;-71
2024/01/04 11:47:38;;;;;;;1999.90;999.90;;;6.70;99.90;;;;;;5077211;28;20410;-69
2024/01/04 11:50:15;;;;;;;1999.90;999.90;;;6.80;99.90;;;;;;5078643;28;20796;-70
2024/01/04 11:52:42;;;;;;;1999.90;999.90;;;6.70;99.90;;;;;;5070776;28;20407;-70
2024/01/04 11:55:09;;;;;;;1999.90;999.90;;;6.70;99.90;;;;;;5075930;28;20427;-70
2024/01/04 11:57:36;;;;;;;1999.90;999.90;;;6.70;99.90;;;;;;5073366;28;21074;-72
2024/01/04 12:00:13;;;;;;;1999.90;999.90;;;6.70;99.90;;;;;;5072328;28;20419;-69
2024/01/04 12:02:42;;;;;;;1999.90;999.90;;;6.70;99.90;;;;;;5068312;28;21077;-69
2024/01/04 12:05:09;;;;;;;1999.90;999.90;;;6.70;99.90;;;;;;5074250;28;20404;-70
2024/01/04 12:07:37;;;;;;;1999.90;999.90;;;6.60;99.90;;;;;;5067316;28;20427;-69
2024/01/04 12:10:04;;;;;;;1999.90;999.90;;;6.60;99.90;;;;;;5073340;28;20446;-70